Time;durP1;ratioP1;P1;durP2;ratioP2;P2;SDS_P1;SDS_P2;PMS_P1;PMS_P2;Temp;Humidity;BMP_temperature;BMP_pressure;BME280_temperature;BME280_humidity;BME280_pressure;Samples;Min_cycle;Max_cycle;Signal;HPM_P1;HPM_P2
2023/03/27 00:00:15;;;;;;;18.25;5.22;;;9.30;99.90;;;9.29;67.14;101470.94;4993502;28;20042;-64
2023/03/27 00:02:47;;;;;;;17.58;5.53;;;9.10;99.90;;;9.22;68.54;101469.09;4992468;28;20061;-64
2023/03/27 00:05:19;;;;;;;16.30;5.43;;;9.10;99.90;;;8.54;71.67;101470.03;4993410;28;20081;-65
2023/03/27 00:07:48;;;;;;;14.82;5.55;;;8.50;99.90;;;8.70;72.04;101465.00;4993384;28;20483;-65
2023/03/27 00:10:17;;;;;;;18.10;5.32;;;8.50;99.90;;;8.69;72.11;101468.47;4993147;28;20054;-64
2023/03/27 00:12:46;;;;;;;14.77;5.22;;;8.60;99.90;;;8.20;72.52;101382.59;4992132;28;20149;-64
2023/03/27 00:15:16;;;;;;;23.38;5.93;;;8.60;99.90;;;8.59;73.22;101477.16;4993165;28;20404;-64
2023/03/27 00:17:50;;;;;;;12.88;5.88;;;8.50;99.90;;;8.58;73.82;101491.19;4993375;28;20042;-64
2023/03/27 00:20:22;;;;;;;16.70;5.30;;;8.40;99.90;;;8.84;73.71;101491.53;4993182;28;20415;-64
2023/03/27 00:22:54;;;;;;;13.63;5.90;;;8.60;99.90;;;9.00;73.03;101498.78;4993185;28;20046;-64
2023/03/27 00:25:25;;;;;;;20.90;5.43;;;8.70;99.90;;;8.92;72.81;101492.53;4993174;28;20480;-64
2023/03/27 00:27:55;;;;;;;18.75;5.55;;;8.80;99.90;;;9.15;72.78;101503.34;4993127;28;20174;-66
2023/03/27 00:30:25;;;;;;;17.92;5.55;;;8.90;99.90;;;9.27;72.19;101509.63;4992992;28;20069;-64
2023/03/27 00:32:55;;;;;;;10.68;4.85;;;9.00;99.90;;;9.19;72.14;101545.63;4993164;28;20042;-64
2023/03/27 00:35:25;;;;;;;17.45;5.88;;;9.00;99.90;;;9.31;71.77;101521.13;4991833;28;20078;-64
2023/03/27 00:37:54;;;;;;;19.27;5.93;;;9.10;99.90;;;9.37;70.94;101514.13;4992792;28;20117;-65
2023/03/27 00:40:24;;;;;;;15.27;5.35;;;9.20;99.90;;;9.41;70.21;101520.34;4993267;28;20042;-64
2023/03/27 00:42:56;;;;;;;14.85;5.65;;;9.20;99.90;;;9.49;69.46;101522.19;4993101;28;20050;-64
2023/03/27 00:45:29;;;;;;;12.85;5.22;;;9.30;99.90;;;9.53;68.59;101524.00;4991745;28;20051;-65
2023/03/27 00:48:03;;;;;;;13.52;4.75;;;9.40;99.90;;;9.60;67.26;101528.47;4992961;28;20073;-64
2023/03/27 00:50:37;;;;;;;12.57;4.93;;;9.40;99.90;;;9.65;67.09;101542.63;4993087;28;20041;-65
2023/03/27 00:53:10;;;;;;;15.32;5.25;;;9.50;99.90;;;9.26;65.47;101534.25;4991783;28;20147;-65
2023/03/27 00:55:42;;;;;;;7.93;3.95;;;9.20;99.90;;;9.13;63.90;101547.28;4993959;28;20054;-64
2023/03/27 00:58:17;;;;;;;10.00;4.18;;;9.10;99.90;;;8.73;64.42;101545.91;4995471;28;20124;-66
2023/03/27 01:00:49;;;;;;;9.93;4.38;;;8.90;99.90;;;8.56;66.01;101523.66;4995512;28;20089;-64
2023/03/27 01:03:20;;;;;;;7.10;4.43;;;8.70;99.90;;;8.10;68.24;101557.22;4995599;28;20054;-64
2023/03/27 01:05:50;;;;;;;6.07;3.97;;;8.20;99.90;;;8.32;68.22;101549.69;4995165;28;20088;-64
2023/03/27 01:08:19;;;;;;;5.40;3.83;;;8.20;99.90;;;8.41;68.16;101547.16;4995340;28;20484;-64
2023/03/27 01:11:09;;;;;;;6.90;4.05;;;8.20;99.90;;;8.52;67.16;101540.31;4996272;28;20399;-65
2023/03/27 01:14:02;;;;;;;5.53;4.18;;;8.40;99.90;;;8.44;66.99;101544.59;4995217;28;20051;-64
2023/03/27 01:16:44;;;;;;;4.30;3.58;;;8.40;99.90;;;8.43;67.28;101550.72;4996304;28;20042;-64
2023/03/27 01:20:01;;;;;;;6.38;4.28;;;8.30;99.90;;;8.49;66.69;101551.72;4996240;28;20104;-65
2023/03/27 01:23:10;;;;;;;4.32;3.40;;;8.30;99.90;;;8.60;66.46;101557.13;4975154;28;20496;-64
2023/03/27 01:26:14;;;;;;;4.47;3.75;;;8.40;99.90;;;8.52;66.77;101561.38;4992201;28;20314;-65
2023/03/27 01:28:53;;;;;;;4.47;3.80;;;8.40;99.90;;;8.57;66.52;101565.91;4995027;28;20051;-64
2023/03/27 01:31:40;;;;;;;5.35;3.67;;;8.50;99.90;;;8.30;68.94;101583.03;4994814;28;20046;-64
2023/03/27 01:34:43;;;;;;;7.22;4.07;;;8.20;99.90;;;8.06;71.65;101592.28;4994586;28;20085;-63
2023/03/27 01:38:02;;;;;;;8.38;4.57;;;7.90;99.90;;;7.67;73.55;101583.63;4994615;28;20139;-63
2023/03/27 01:40:36;;;;;;;9.65;4.70;;;7.70;99.90;;;7.97;74.48;101589.47;4977406;28;20054;-63
2023/03/27 01:43:10;;;;;;;7.70;4.28;;;7.70;99.90;;;8.17;74.90;101595.97;4996070;28;20408;-64
2023/03/27 01:45:45;;;;;;;8.10;4.55;;;7.90;99.90;;;8.21;74.60;101605.69;4994513;28;20145;-63
2023/03/27 01:48:19;;;;;;;7.85;4.50;;;8.00;99.90;;;8.06;74.79;101589.63;4995737;28;20050;-63
2023/03/27 01:50:52;;;;;;;10.38;4.45;;;8.00;99.90;;;8.23;74.36;101602.22;4994200;28;20492;-63
2023/03/27 01:53:25;;;;;;;8.18;4.40;;;8.00;99.90;;;8.06;75.01;101597.53;4994579;28;20575;-63
2023/03/27 01:56:02;;;;;;;9.00;4.72;;;7.90;99.90;;;7.95;75.80;101588.56;4995555;28;20447;-63
2023/03/27 01:58:39;;;;;;;8.95;4.43;;;7.80;99.90;;;8.05;75.16;101595.75;4994281;28;20046;-64
2023/03/27 02:01:10;;;;;;;9.45;5.20;;;7.80;99.90;;;8.08;75.13;101598.44;4994091;28;20050;-63
2023/03/27 02:03:42;;;;;;;8.57;5.30;;;7.90;99.90;;;8.06;74.60;101594.91;4994607;28;20054;-63
2023/03/27 02:06:17;;;;;;;9.05;4.47;;;7.90;99.90;;;8.21;73.41;101605.69;4995542;28;20134;-63
2023/03/27 02:08:53;;;;;;;11.00;4.57;;;8.00;99.90;;;8.19;73.47;101609.16;4994191;28;20089;-63
2023/03/27 02:11:26;;;;;;;6.13;4.43;;;8.00;99.90;;;8.08;73.55;101613.34;4993933;28;20046;-63
2023/03/27 02:14:00;;;;;;;10.18;5.32;;;8.00;99.90;;;7.95;73.75;101619.28;4993936;28;20057;-63
2023/03/27 02:16:34;;;;;;;8.45;4.15;;;7.80;99.90;;;7.79;72.93;101610.22;4994208;28;20051;-63
2023/03/27 02:19:11;;;;;;;7.13;4.55;;;7.70;99.90;;;7.92;72.86;101630.63;4994140;28;20466;-63
2023/03/27 02:21:39;;;;;;;9.05;4.22;;;7.80;99.90;;;7.90;73.35;101637.63;4993714;28;20471;-63
2023/03/27 02:24:08;;;;;;;7.40;4.18;;;7.80;99.90;;;7.91;73.53;101633.25;4995215;28;20753;-63
2023/03/27 02:26:38;;;;;;;7.80;4.95;;;7.80;99.90;;;7.99;73.68;101640.41;4993926;28;20145;-63
2023/03/27 02:29:44;;;;;;;5.50;4.85;;;7.80;99.90;;;7.90;73.74;101627.09;4993930;28;20050;-63
2023/03/27 02:32:31;;;;;;;7.28;4.93;;;7.80;99.90;;;7.92;73.85;101629.75;4993522;28;20043;-63
2023/03/27 02:35:11;;;;;;;4.68;4.07;;;7.80;99.90;;;7.13;74.00;101501.00;4993767;28;20054;-64
2023/03/27 02:37:54;;;;;;;5.70;4.10;;;7.70;99.90;;;7.86;74.49;101635.78;4993470;28;20048;-63
2023/03/27 02:40:55;;;;;;;4.47;4.05;;;7.70;99.90;;;7.90;74.06;101640.25;4993589;28;20061;-63
2023/03/27 02:43:54;;;;;;;8.10;4.10;;;7.70;99.90;;;7.83;74.54;101641.00;4994986;28;20412;-63
2023/03/27 02:46:42;;;;;;;5.70;4.13;;;7.70;99.90;;;7.84;74.59;101641.91;4993526;28;20050;-64
2023/03/27 02:49:17;;;;;;;4.03;3.72;;;7.70;99.90;;;7.74;74.25;101655.75;4993231;28;20046;-63
2023/03/27 02:51:52;;;;;;;5.65;3.88;;;7.50;99.90;;;7.81;74.40;101653.25;4993637;28;20054;-64
2023/03/27 02:54:25;;;;;;;4.97;3.72;;;7.60;99.90;;;7.77;74.58;101645.25;4993215;28;20057;-64
2023/03/27 02:56:58;;;;;;;4.30;3.90;;;7.60;99.90;;;7.58;74.98;101653.66;4994469;28;20403;-63
2023/03/27 02:59:44;;;;;;;4.75;4.07;;;7.40;99.90;;;7.55;75.18;101657.09;4993249;28;20080;-63
2023/03/27 03:02:18;;;;;;;6.05;3.90;;;7.30;99.90;;;7.45;75.46;101663.06;4993299;28;20050;-64
2023/03/27 03:05:04;;;;;;;5.57;4.50;;;7.20;99.90;;;7.37;76.10;101664.66;4993102;28;20113;-63
2023/03/27 03:07:39;;;;;;;4.40;4.07;;;7.10;99.90;;;7.39;76.65;101667.31;4993013;28;20050;-63
2023/03/27 03:10:10;;;;;;;6.32;4.05;;;7.10;99.90;;;7.38;76.25;101665.50;4992754;28;20046;-64
2023/03/27 03:12:39;;;;;;;7.38;4.30;;;7.10;99.90;;;7.37;76.11;101674.28;4993025;28;20137;-63
2023/03/27 03:15:10;;;;;;;5.45;4.13;;;7.10;99.90;;;7.33;75.88;101678.59;4992937;28;20121;-63
2023/03/27 03:17:38;;;;;;;6.32;4.60;;;7.10;99.90;;;7.24;77.11;101684.53;4992309;28;20149;-63
2023/03/27 03:20:09;;;;;;;4.45;4.05;;;7.00;99.90;;;7.36;77.46;101688.28;4994010;28;20101;-63
2023/03/27 03:22:38;;;;;;;5.55;4.53;;;7.10;99.90;;;7.51;77.29;101709.69;4992630;28;20181;-63
2023/03/27 03:25:09;;;;;;;5.47;4.10;;;7.20;99.90;;;7.52;77.61;101716.72;4992853;28;20077;-63
2023/03/27 03:27:40;;;;;;;4.72;4.30;;;7.30;99.90;;;7.53;77.06;101713.22;4993929;28;20388;-63
2023/03/27 03:30:14;;;;;;;6.65;4.72;;;7.40;99.90;;;7.61;76.09;101703.72;4992862;28;20042;-63
2023/03/27 03:33:05;;;;;;;7.95;4.53;;;7.40;99.90;;;7.54;76.27;101707.09;4993309;28;20113;-63
2023/03/27 03:35:33;;;;;;;7.30;4.50;;;7.40;99.90;;;7.62;75.66;101711.69;4992558;28;20129;-63
2023/03/27 03:38:07;;;;;;;7.72;4.13;;;7.40;99.90;;;7.71;75.26;101708.34;4992542;28;20081;-63
2023/03/27 03:40:44;;;;;;;10.50;4.50;;;7.60;99.90;;;7.87;75.24;101718.34;4992646;28;20108;-63
2023/03/27 03:43:13;;;;;;;6.80;4.15;;;7.70;99.90;;;7.85;75.29;101720.03;4992278;28;20046;-63
2023/03/27 03:45:42;;;;;;;6.65;4.35;;;7.70;99.90;;;7.83;75.51;101720.03;4992451;28;20048;-63
2023/03/27 03:48:11;;;;;;;5.03;3.95;;;7.70;99.90;;;7.79;75.35;101730.44;4992441;28;20439;-63
2023/03/27 03:50:39;;;;;;;6.75;3.95;;;7.60;99.90;;;7.89;74.86;101730.69;4993378;28;20457;-63
2023/03/27 03:53:07;;;;;;;9.93;4.95;;;7.70;99.90;;;7.89;75.06;101730.69;4992245;28;20058;-63
2023/03/27 03:55:37;;;;;;;9.18;4.38;;;7.70;99.90;;;7.93;75.64;101724.63;4993441;28;20052;-64
2023/03/27 03:58:06;;;;;;;11.40;4.88;;;7.70;99.90;;;7.92;75.90;101733.38;4992350;28;20482;-63
2023/03/27 04:00:38;;;;;;;8.65;4.45;;;7.70;99.90;;;7.89;75.31;101733.31;4992386;28;20074;-63
2023/03/27 04:03:14;;;;;;;8.32;4.65;;;7.70;99.90;;;7.90;75.14;101740.34;4992316;28;20603;-64
2023/03/27 04:05:44;;;;;;;8.70;5.43;;;7.70;99.90;;;7.97;75.52;101741.38;4991802;28;20077;-63
2023/03/27 04:08:12;;;;;;;6.25;4.15;;;7.70;99.90;;;8.02;75.01;101751.13;4993317;28;20134;-65
2023/03/27 04:10:58;;;;;;;7.65;4.57;;;7.80;99.90;;;8.14;74.77;101753.13;4992248;28;20051;-63
2023/03/27 04:14:02;;;;;;;10.77;4.75;;;7.90;99.90;;;7.99;75.51;101747.56;4982120;28;20043;-63
2023/03/27 04:16:41;;;;;;;9.30;5.10;;;7.80;99.90;;;7.79;76.50;101752.41;4991811;28;20049;-63
2023/03/27 04:19:25;;;;;;;10.27;5.00;;;7.60;99.90;;;7.78;76.09;101763.78;4992216;28;20078;-63
2023/03/27 04:22:01;;;;;;;11.60;5.05;;;7.50;99.90;;;7.73;76.10;101765.44;4992158;28;20070;-63
2023/03/27 04:24:32;;;;;;;8.93;4.10;;;7.50;99.90;;;7.84;76.19;101768.31;4991906;28;20050;-64
2023/03/27 04:27:01;;;;;;;6.32;4.68;;;7.60;99.90;;;7.98;75.82;101764.19;4991748;28;20046;-64
2023/03/27 04:29:42;;;;;;;9.27;4.80;;;7.70;99.90;;;7.76;74.08;101781.28;4992685;28;20133;-63
2023/03/27 04:32:30;;;;;;;16.10;4.93;;;7.60;99.90;;;7.07;72.68;101779.69;4997175;28;20065;-64
2023/03/27 04:35:32;;;;;;;7.22;4.47;;;7.20;99.90;;;6.83;68.00;101772.09;4996922;28;20050;-63
2023/03/27 04:38:13;;;;;;;7.75;4.13;;;6.90;99.90;;;6.81;66.65;101749.25;4995929;28;20408;-63
2023/03/27 04:40:48;;;;;;;5.70;3.60;;;6.80;99.90;;;7.15;65.35;101788.66;4995834;28;20054;-63
2023/03/27 04:43:17;;;;;;;5.85;3.80;;;7.00;99.90;;;7.23;64.04;101792.38;4995996;28;20137;-63
2023/03/27 04:45:47;;;;;;;6.90;3.67;;;7.10;99.90;;;6.97;64.85;101793.47;4995450;28;20469;-63
2023/03/27 04:48:16;;;;;;;7.95;3.80;;;6.90;99.90;;;7.09;64.56;101799.03;4995720;28;20045;-63
2023/03/27 04:50:51;;;;;;;10.80;4.32;;;6.90;99.90;;;7.06;64.94;101810.41;4995942;28;20047;-63
2023/03/27 04:53:34;;;;;;;8.02;3.80;;;6.90;99.90;;;6.93;66.33;101813.53;4996741;28;20042;-63
2023/03/27 04:56:04;;;;;;;12.50;4.90;;;6.80;99.90;;;7.19;67.23;101807.19;4995379;28;20547;-63
2023/03/27 04:58:36;;;;;;;10.85;3.88;;;6.90;99.90;;;7.06;67.19;101798.97;4995479;28;20034;-63
2023/03/27 05:01:11;;;;;;;9.43;5.25;;;7.00;99.90;;;7.42;67.46;101818.25;4995600;28;20574;-63
2023/03/27 05:04:01;;;;;;;14.98;4.00;;;7.20;99.90;;;7.65;67.64;101814.41;4989564;28;20415;-63
2023/03/27 05:06:54;;;;;;;10.50;4.75;;;7.40;99.90;;;7.73;67.87;101810.22;4989446;28;20054;-64
2023/03/27 05:09:24;;;;;;;11.20;4.43;;;7.60;99.90;;;7.61;68.35;101773.06;4994192;28;20046;-64
2023/03/27 05:11:52;;;;;;;12.45;4.82;;;7.70;99.90;;;7.96;68.67;101815.97;4993988;28;20070;-63
2023/03/27 05:14:23;;;;;;;14.35;5.18;;;7.80;99.90;;;8.03;69.10;101824.03;4995364;28;20130;-63
2023/03/27 05:16:53;;;;;;;10.15;4.45;;;7.80;99.90;;;8.15;68.98;101821.66;4993861;28;20080;-64
2023/03/27 05:19:23;;;;;;;13.18;4.70;;;8.00;99.90;;;7.90;69.43;101763.16;4993708;28;20133;-63
2023/03/27 05:22:00;;;;;;;15.75;5.75;;;8.00;99.90;;;8.23;70.03;101831.50;4993968;28;20058;-64
2023/03/27 05:24:28;;;;;;;11.73;4.72;;;8.00;99.90;;;8.26;70.16;101832.47;4995302;28;20118;-64
2023/03/27 05:26:57;;;;;;;11.07;5.15;;;8.10;99.90;;;8.27;70.43;101839.50;4993897;28;20042;-63
2023/03/27 05:29:25;;;;;;;16.00;5.05;;;8.00;99.90;;;8.15;70.62;101828.66;4995110;28;20046;-63
2023/03/27 05:32:03;;;;;;;13.65;5.03;;;8.00;99.90;;;8.17;70.76;101838.38;4993754;28;20070;-63
2023/03/27 05:34:44;;;;;;;9.35;4.80;;;7.90;99.90;;;8.15;70.93;101840.09;4994962;28;20189;-64
2023/03/27 05:37:18;;;;;;;15.82;5.07;;;7.90;99.90;;;8.31;71.34;101845.72;4993469;28;20046;-63
2023/03/27 05:40:19;;;;;;;15.30;4.85;;;8.00;99.90;;;8.18;70.96;101848.09;4981273;28;20054;-64
2023/03/27 05:42:50;;;;;;;15.05;5.55;;;8.00;99.90;;;7.76;71.50;101776.03;4993594;28;20133;-63
2023/03/27 05:45:18;;;;;;;16.42;5.18;;;8.00;99.90;;;8.17;70.96;101848.94;4993427;28;20519;-63
2023/03/27 05:47:50;;;;;;;13.43;5.18;;;7.90;99.90;;;8.10;70.88;101848.78;4993305;28;20051;-63
2023/03/27 05:50:22;;;;;;;13.80;5.20;;;7.90;99.90;;;7.77;71.19;101780.47;4994553;28;20046;-63
2023/03/27 05:52:57;;;;;;;20.38;5.47;;;7.90;99.90;;;7.89;71.27;101822.88;4993309;28;20054;-64
2023/03/27 05:55:32;;;;;;;;;;;7.90;99.90;;;7.73;71.26;101865.50;4993905;28;20050;-61
2023/03/27 05:58:01;;;;;;;15.38;5.82;;;7.60;99.90;;;7.93;71.14;101861.59;4993282;28;19922;-64
2023/03/27 06:00:32;;;;;;;11.88;5.65;;;7.60;99.90;;;7.52;69.94;101859.75;4993153;28;20046;-60
2023/03/27 06:03:03;;;;;;;19.52;6.20;;;7.40;99.90;;;7.71;69.60;101867.22;4993083;28;20522;-65
2023/03/27 06:05:51;;;;;;;13.73;5.35;;;7.50;99.90;;;7.84;68.22;101871.91;4949411;28;1272705;-60
2023/03/27 06:08:21;;;;;;;18.50;6.17;;;7.60;99.90;;;7.99;67.53;101872.25;4994066;28;20140;-60
2023/03/27 06:10:50;;;;;;;17.30;6.50;;;7.80;99.90;;;8.06;66.59;101879.44;4993988;28;20064;-64
2023/03/27 06:13:24;;;;;;;20.02;5.63;;;7.90;99.90;;;7.73;66.46;101889.22;4993742;28;20046;-64
2023/03/27 06:15:59;;;;;;;16.52;6.35;;;7.70;99.90;;;8.10;65.33;101888.28;4993918;28;20077;-64
2023/03/27 06:18:42;;;;;;;18.75;5.82;;;8.00;99.90;;;8.19;65.42;101893.75;4995198;28;20057;-64
2023/03/27 06:21:14;;;;;;;16.77;5.70;;;8.00;99.90;;;8.02;64.05;101897.78;4993797;28;20065;-65
2023/03/27 06:23:44;;;;;;;20.92;6.28;;;8.00;99.90;;;7.99;64.61;101888.03;4994821;28;20129;-65
2023/03/27 06:26:15;;;;;;;13.98;5.32;;;7.90;99.90;;;8.01;65.71;101898.63;4993875;28;20058;-65
2023/03/27 06:28:44;;;;;;;21.05;6.28;;;7.90;99.90;;;8.19;65.86;101905.19;4993580;28;20077;-65
2023/03/27 06:31:16;;;;;;;15.52;5.25;;;8.00;99.90;;;7.95;66.30;101915.19;4993499;28;20142;-63
2023/03/27 06:34:07;;;;;;;11.35;5.25;;;7.80;99.90;;;8.46;66.13;101919.88;4993320;28;20097;-63
2023/03/27 06:37:02;;;;;;;9.82;4.82;;;8.20;99.90;;;8.34;64.80;101920.50;4993640;28;20462;-63
2023/03/27 06:39:43;;;;;;;8.90;4.72;;;8.20;99.90;;;9.01;63.92;101923.63;4993805;28;20062;-64
2023/03/27 06:42:11;;;;;;;8.63;4.15;;;8.70;99.90;;;9.19;62.18;101927.47;4993447;28;20089;-64
2023/03/27 06:44:59;;;;;;;19.35;5.40;;;9.00;99.90;;;9.45;59.94;101927.03;4993774;28;20412;-63
2023/03/27 06:48:02;;;;;;;10.40;4.72;;;9.20;99.90;;;9.04;59.67;101928.03;4983813;28;20046;-63
2023/03/27 06:50:51;;;;;;;12.57;5.03;;;8.90;99.90;;;9.09;59.27;101929.03;4993194;28;20415;-64
2023/03/27 06:53:20;;;;;;;;;;;8.90;99.90;;;8.63;59.93;101924.59;4992976;28;20038;-64
2023/03/27 06:55:54;;;;;;;10.57;4.70;;;8.50;99.90;;;8.86;60.66;101927.72;4993695;28;20351;-65
2023/03/27 06:58:26;;;;;;;11.88;4.03;;;8.60;99.90;;;8.73;60.83;101941.53;4993366;28;20145;-65
2023/03/27 07:00:55;;;;;;;;;;;8.60;99.90;;;8.86;61.87;101941.81;4993582;28;20050;-64
2023/03/27 07:03:50;;;;;;;10.77;4.85;;;8.60;99.90;;;8.40;61.04;101830.09;4993156;28;19973;-63
2023/03/27 07:06:37;;;;;;;17.40;5.00;;;8.80;99.90;;;8.69;60.76;101947.59;4994396;28;20072;-61
2023/03/27 07:09:10;;;;;;;14.38;4.63;;;8.60;99.90;;;8.75;61.37;101955.63;4993085;28;20159;-63
2023/03/27 07:11:40;;;;;;;11.07;4.47;;;8.60;99.90;;;8.62;61.36;101953.59;4992879;28;20058;-64
2023/03/27 07:14:10;;;;;;;9.63;4.40;;;8.50;99.90;;;8.88;60.72;101958.53;4993060;28;20042;-64
2023/03/27 07:16:38;;;;;;;10.50;5.00;;;8.80;99.90;;;8.86;60.50;101957.63;4994456;28;20504;-63
2023/03/27 07:19:08;;;;;;;9.45;4.13;;;8.80;99.90;;;9.02;60.09;101959.69;4992780;28;20053;-63
2023/03/27 07:21:41;;;;;;;8.90;4.53;;;8.90;99.90;;;8.98;60.33;101967.53;4993076;28;20042;-64
2023/03/27 07:24:11;;;;;;;12.07;4.32;;;8.80;99.90;;;8.67;60.59;101963.38;4992620;28;20396;-65
2023/03/27 07:26:41;;;;;;;17.02;4.70;;;8.60;99.90;;;8.51;62.19;101956.00;4994006;28;20054;-64
2023/03/27 07:29:22;;;;;;;11.32;4.30;;;8.50;99.90;;;8.66;61.61;101971.25;4994048;28;20054;-64
2023/03/27 07:31:55;;;;;;;9.45;3.90;;;8.60;99.90;;;8.68;61.80;101986.25;4992535;28;20101;-64
2023/03/27 07:34:39;;;;;;;9.68;3.92;;;8.50;99.90;;;8.98;60.28;101986.00;4992407;28;20058;-64
2023/03/27 07:37:11;;;;;;;6.88;4.20;;;8.80;99.90;;;9.48;59.86;101989.59;4994002;28;20070;-65
2023/03/27 07:39:50;;;;;;;8.88;4.25;;;9.30;99.90;;;9.32;59.31;101982.25;4992610;28;20162;-65
2023/03/27 07:42:20;;;;;;;14.93;4.45;;;9.30;99.90;;;9.47;59.85;101990.44;4992376;28;20105;-65
2023/03/27 07:44:59;;;;;;;17.07;4.57;;;9.40;99.90;;;9.81;60.42;102000.75;4992123;28;20053;-65
2023/03/27 07:47:31;;;;;;;8.02;3.80;;;9.50;99.90;;;10.29;58.75;102000.66;4992078;28;20304;-66
2023/03/27 07:49:59;;;;;;;11.57;4.05;;;10.10;99.90;;;10.52;56.51;102000.13;4992362;28;20484;-65
2023/03/27 07:52:28;;;;;;;10.65;4.00;;;10.50;99.90;;;10.35;56.05;102003.41;4993489;28;20097;-66
2023/03/27 07:54:59;;;;;;;6.65;3.90;;;10.30;99.90;;;10.49;54.91;102009.78;4992148;28;20038;-65
2023/03/27 07:57:47;;;;;;;8.95;4.00;;;10.40;99.90;;;10.74;53.53;102014.53;4991944;28;20080;-67
2023/03/27 08:00:32;;;;;;;8.00;3.80;;;10.70;99.90;;;10.97;53.60;102013.09;4992265;28;20298;-66
2023/03/27 08:03:12;;;;;;;8.63;3.97;;;10.90;99.90;;;11.29;53.65;102029.31;4992031;28;20062;-66
2023/03/27 08:05:56;;;;;;;7.78;3.55;;;11.20;99.90;;;10.99;54.02;101992.81;4992264;28;20062;-65
2023/03/27 08:08:28;;;;;;;9.95;3.95;;;11.20;99.90;;;10.88;54.56;101978.53;4992320;28;20047;-66
2023/03/27 08:10:58;;;;;;;;;;;11.10;99.90;;;11.19;52.72;102033.63;4992717;28;20061;-66
2023/03/27 08:13:32;;;;;;;7.95;3.65;;;11.10;99.90;;;11.11;51.86;102035.28;4992022;28;19925;-79
2023/03/27 08:16:07;;;;;;;8.20;4.13;;;11.00;99.90;;;10.86;53.00;102036.75;4991960;28;20061;-64
2023/03/27 08:18:37;;;;;;;7.78;3.88;;;10.90;99.90;;;10.81;52.32;102059.63;4991854;28;20066;-65
2023/03/27 08:21:09;;;;;;;10.32;3.75;;;10.90;99.90;;;10.94;52.13;102041.28;4993250;28;20509;-66
2023/03/27 08:23:39;;;;;;;6.72;3.72;;;11.00;99.90;;;11.28;52.50;102048.75;4992021;28;20507;-66
2023/03/27 08:26:09;;;;;;;10.20;4.10;;;11.10;99.90;;;11.23;52.32;102048.69;4993142;28;20042;-68
2023/03/27 08:28:59;;;;;;;10.68;4.85;;;11.20;99.90;;;10.51;52.57;102045.09;4991725;28;20296;-68
2023/03/27 08:31:31;;;;;;;12.30;4.03;;;10.70;99.90;;;10.10;53.58;102052.38;5008449;28;20053;-68
2023/03/27 08:34:01;;;;;;;10.45;4.22;;;10.10;99.90;;;9.82;54.32;102028.94;4992027;28;20785;-67
2023/03/27 08:36:47;;;;;;;11.77;4.38;;;9.90;99.90;;;10.44;54.40;102062.63;4992363;28;20058;-67
2023/03/27 08:39:16;;;;;;;10.13;4.03;;;10.30;99.90;;;9.95;55.59;102058.25;4991684;28;20074;-68
2023/03/27 08:42:05;;;;;;;11.65;4.05;;;10.00;99.90;;;10.16;54.90;102068.34;4991744;28;20112;-67
2023/03/27 08:44:37;;;;;;;10.15;4.43;;;10.00;99.90;;;10.28;52.34;102055.28;4991820;28;20165;-67
2023/03/27 08:47:21;;;;;;;8.73;4.53;;;10.20;99.90;;;10.35;52.85;102058.94;4991700;28;20047;-67
2023/03/27 08:49:59;;;;;;;7.43;4.38;;;10.30;99.90;;;10.47;52.18;102067.06;4991590;28;20463;-67
2023/03/27 08:52:46;;;;;;;15.60;5.18;;;10.30;99.90;;;10.61;53.14;102057.56;4991711;28;20050;-68
2023/03/27 08:55:37;;;;;;;11.25;4.20;;;10.60;99.90;;;10.42;55.28;102080.22;4991823;28;20053;-67
2023/03/27 08:58:20;;;;;;;6.53;4.00;;;10.40;99.90;;;10.40;54.85;102075.75;4991679;28;20105;-66
2023/03/27 09:01:02;;;;;;;9.20;4.18;;;10.50;99.90;;;10.23;55.19;102085.19;4991649;28;20046;-64
2023/03/27 09:03:35;;;;;;;8.65;4.45;;;10.20;99.90;;;10.34;55.08;102065.97;4991697;28;20046;-68
2023/03/27 09:06:11;;;;;;;8.80;4.07;;;10.30;99.90;;;10.00;56.03;102093.59;4991678;28;20145;-68
2023/03/27 09:08:55;;;;;;;11.88;4.80;;;10.00;99.90;;;9.97;57.33;102104.09;4991616;28;20093;-68
2023/03/27 09:11:36;;;;;;;9.35;4.25;;;9.90;99.90;;;10.79;55.44;102116.06;4991648;28;20507;-70
2023/03/27 09:14:19;;;;;;;7.97;3.92;;;10.40;99.90;;;10.75;53.05;102115.13;4991485;28;20050;-66
2023/03/27 09:16:51;;;;;;;13.35;4.63;;;10.70;99.90;;;10.82;52.68;102121.38;4993390;28;20496;-66
2023/03/27 09:19:37;;;;;;;7.15;3.65;;;10.70;99.90;;;10.31;53.42;102116.19;4995215;28;20043;-67
2023/03/27 09:22:12;;;;;;;10.82;4.28;;;10.30;99.90;;;10.49;52.38;102108.53;4995197;28;20050;-66
2023/03/27 09:25:09;;;;;;;10.73;3.97;;;10.40;99.90;;;10.47;53.57;102117.31;4975441;28;20062;-67
2023/03/27 09:28:15;;;;;;;11.90;4.13;;;10.30;99.90;;;9.97;54.03;102096.16;4995696;28;20482;-66
2023/03/27 09:30:49;;;;;;;10.85;4.50;;;10.00;99.90;;;10.28;54.32;102087.03;4995043;28;20551;-66
2023/03/27 09:33:28;;;;;;;8.30;4.32;;;10.30;99.90;;;10.67;54.78;102127.34;4994812;28;20153;-66
2023/03/27 09:35:58;;;;;;;14.18;4.55;;;10.40;99.90;;;10.06;54.11;102091.91;4994982;28;20058;-66
2023/03/27 09:38:32;;;;;;;;;;;10.30;99.90;;;10.44;54.49;102134.03;4995304;28;20050;-66
2023/03/27 09:41:07;;;;;;;11.18;4.95;;;10.20;99.90;;;10.25;54.20;102133.69;4994836;28;19929;-66
2023/03/27 09:43:42;;;;;;;10.70;4.90;;;10.20;99.90;;;10.07;55.60;102126.28;4994598;28;20055;-66
2023/03/27 09:46:16;;;;;;;15.25;4.70;;;9.90;99.90;;;9.61;57.11;102121.91;4994447;28;20490;-66
2023/03/27 09:48:59;;;;;;;14.88;4.85;;;9.60;99.90;;;10.04;56.07;102118.31;4994810;28;20504;-65
2023/03/27 09:51:40;;;;;;;14.80;5.13;;;9.80;99.90;;;9.88;55.45;102130.38;4996052;28;20050;-66
2023/03/27 09:54:53;;;;;;;10.20;4.88;;;9.80;99.90;;;9.65;56.51;102115.84;4977036;28;20663;-66
2023/03/27 09:57:37;;;;;;;10.40;4.55;;;9.50;99.90;;;9.87;57.17;102133.84;4994391;28;20050;-67
2023/03/27 10:00:25;;;;;;;10.57;4.07;;;9.70;99.90;;;10.06;55.50;102123.63;4994233;28;20137;-66
2023/03/27 10:03:02;;;;;;;10.32;4.38;;;9.90;99.90;;;10.21;55.24;102130.13;4994241;28;20054;-65
2023/03/27 10:05:34;;;;;;;12.60;4.43;;;10.10;99.90;;;10.62;54.76;102150.22;4994070;28;20133;-67
2023/03/27 10:08:39;;;;;;;8.77;3.83;;;10.40;99.90;;;10.27;52.38;102034.13;4994061;28;20053;-63
2023/03/27 10:11:18;;;;;;;9.05;4.10;;;10.80;99.90;;;10.96;53.21;102166.56;4993914;28;20121;-70
2023/03/27 10:13:54;;;;;;;10.88;4.35;;;10.90;99.90;;;10.61;53.87;102156.34;4994127;28;20058;-68
2023/03/27 10:16:26;;;;;;;16.15;5.05;;;10.80;99.90;;;10.45;54.87;102178.13;4994030;28;20141;-64
2023/03/27 10:19:01;;;;;;;11.48;4.40;;;10.40;99.90;;;10.43;56.19;102169.25;4993972;28;20058;-64
2023/03/27 10:21:41;;;;;;;9.57;4.05;;;10.30;99.90;;;9.76;57.22;102167.13;4993778;28;20046;-64
2023/03/27 10:24:21;;;;;;;10.70;4.30;;;9.80;99.90;;;9.44;57.98;102162.94;4994018;28;20042;-64
2023/03/27 10:27:20;;;;;;;10.63;4.90;;;9.40;99.90;;;9.30;58.81;102119.50;4986103;28;20058;-71
2023/03/27 10:30:28;;;;;;;13.23;4.43;;;9.40;99.90;;;9.76;59.77;102180.34;4994767;28;20046;-68
2023/03/27 10:33:30;;;;;;;13.43;4.80;;;9.60;99.90;;;10.31;59.94;102147.03;4994715;28;20065;-69
2023/03/27 10:36:19;;;;;;;11.98;4.45;;;10.20;99.90;;;10.69;59.16;102182.94;4994740;28;20061;-70
2023/03/27 10:38:56;;;;;;;10.85;4.18;;;10.60;99.90;;;10.23;59.15;102183.00;4993754;28;20057;-70
2023/03/27 10:41:36;;;;;;;11.00;4.60;;;10.20;99.90;;;10.23;59.97;102175.97;4993638;28;20050;-71
2023/03/27 10:44:16;;;;;;;9.48;4.80;;;10.10;99.90;;;10.73;58.08;102200.66;4993423;28;20389;-68
2023/03/27 10:46:50;;;;;;;12.00;4.28;;;10.50;99.90;;;11.08;56.77;102204.72;4993509;28;20130;-66
2023/03/27 10:49:30;;;;;;;7.35;4.00;;;10.90;99.90;;;11.20;53.26;102194.31;4994989;28;20046;-66
2023/03/27 10:52:15;;;;;;;11.07;3.83;;;11.10;99.90;;;11.13;53.11;102203.03;4993589;28;20042;-66
2023/03/27 10:55:29;;;;;;;8.43;3.88;;;11.00;99.90;;;11.35;52.89;102199.84;4991188;28;20099;-65
2023/03/27 10:58:04;;;;;;;15.10;4.68;;;11.20;99.90;;;11.57;53.00;102207.22;4993139;28;20050;-67
2023/03/27 11:00:42;;;;;;;11.13;4.63;;;11.40;99.90;;;11.25;54.40;102213.81;4993270;28;20388;-68
2023/03/27 11:03:20;;;;;;;11.20;4.32;;;11.20;99.90;;;11.09;54.75;102203.84;4992689;28;20397;-67